Time;durP1;ratioP1;P1;durP2;ratioP2;P2;SDS_P1;SDS_P2;PMS_P1;PMS_P2;Temp;Humidity;BMP_temperature;BMP_pressure;BME280_temperature;BME280_humidity;BME280_pressure;Samples;Min_cycle;Max_cycle;Signal;HPM_P1;HPM_P2
2023/03/08 00:00:00;;;;;;;0.00;0.00;;;0.20;99.90;;;;;;5113855;28;20085;-82
2023/03/08 00:02:26;;;;;;;0.00;0.00;;;0.20;99.90;;;;;;5080817;28;20039;-83
2023/03/08 00:04:55;;;;;;;0.00;0.00;;;0.20;99.80;;;;;;5079629;28;20047;-82
2023/03/08 00:07:21;;;;;;;0.00;0.00;;;0.10;99.90;;;;;;5080230;28;20047;-84
2023/03/08 00:09:47;;;;;;;0.00;0.00;;;0.10;99.90;;;;;;5079972;28;20047;-83
2023/03/08 00:12:13;;;;;;;0.00;0.00;;;0.10;99.90;;;;;;5096577;28;20467;-83
2023/03/08 00:14:38;;;;;;;0.00;0.00;;;0.30;99.90;;;;;;5096358;28;20052;-83
2023/03/08 00:17:04;;;;;;;0.00;0.00;;;0.10;99.70;;;;;;5096502;28;20050;-83
2023/03/08 00:19:30;;;;;;;0.00;0.00;;;0.10;99.90;;;;;;5096610;28;20130;-83
2023/03/08 00:21:56;;;;;;;0.00;0.00;;;0.10;99.90;;;;;;5079833;28;20058;-83
2023/03/08 00:24:22;;;;;;;0.00;0.00;;;0.10;99.80;;;;;;5097436;28;20044;-83
2023/03/08 00:26:48;;;;;;;0.00;0.00;;;0.20;99.90;;;;;;5062913;28;20096;-83
2023/03/08 00:29:14;;;;;;;0.00;0.00;;;0.10;99.90;;;;;;5096447;28;20171;-83
2023/03/08 00:31:40;;;;;;;0.00;0.00;;;0.50;99.90;;;;;;5114212;28;20054;-83
2023/03/08 00:34:06;;;;;;;0.00;0.00;;;0.10;99.90;;;;;;5063537;28;20043;-83
2023/03/08 00:36:31;;;;;;;0.00;0.00;;;0.10;99.90;;;;;;5079646;28;20043;-83
2023/03/08 00:38:57;;;;;;;0.00;0.00;;;0.10;99.90;;;;;;5096379;28;20046;-83
2023/03/08 00:41:23;;;;;;;0.00;0.00;;;0.10;99.90;;;;;;5113478;28;20039;-83
2023/03/08 00:43:49;;;;;;;0.00;0.00;;;0.10;99.90;;;;;;5078741;28;20043;-83
2023/03/08 00:46:15;;;;;;;0.00;0.00;;;0.10;99.90;;;;;;5112789;28;20056;-83
2023/03/08 00:48:41;;;;;;;0.00;0.00;;;0.10;99.90;;;;;;5097135;28;20101;-83
2023/03/08 00:51:08;;;;;;;0.03;0.03;;;0.60;99.90;;;;;;5113547;28;20036;-83
2023/03/08 00:53:33;;;;;;;0.00;0.00;;;0.00;99.90;;;;;;5095935;28;20494;-82
2023/03/08 00:55:59;;;;;;;0.00;0.00;;;0.30;99.90;;;;;;5113141;28;20044;-82
2023/03/08 00:58:27;;;;;;;0.00;0.00;;;0.00;99.90;;;;;;5062536;28;20488;-82
2023/03/08 01:00:53;;;;;;;0.00;0.00;;;0.00;99.90;;;;;;5113043;28;20043;-83
2023/03/08 01:03:20;;;;;;;0.00;0.00;;;0.00;99.90;;;;;;5113049;28;20480;-83
2023/03/08 01:05:52;;;;;;;0.22;0.22;;;0.00;99.90;;;;;;5113065;28;20131;-82
2023/03/08 01:08:19;;;;;;;0.00;0.00;;;0.00;99.90;;;;;;5096388;28;20043;-82
2023/03/08 01:10:53;;;;;;;0.00;0.00;;;0.00;99.90;;;;;;5113080;28;20085;-83
2023/03/08 01:13:20;;;;;;;0.00;0.00;;;-0.10;99.90;;;;;;5096253;28;20082;-82
2023/03/08 01:15:46;;;;;;;0.00;0.00;;;0.30;99.90;;;;;;5112918;28;20514;-82
2023/03/08 01:18:12;;;;;;;0.15;0.03;;;-0.10;99.90;;;;;;5113722;28;20097;-83
2023/03/08 01:20:38;;;;;;;0.00;0.00;;;-0.10;99.90;;;;;;5113717;28;20158;-83
2023/03/08 01:23:04;;;;;;;2.30;0.85;;;-0.10;99.90;;;;;;5113126;28;20622;-83
2023/03/08 01:25:30;;;;;;;0.00;0.00;;;0.00;99.90;;;;;;5096223;28;20047;-83
2023/03/08 01:27:55;;;;;;;0.00;0.00;;;-0.10;99.90;;;;;;5062375;28;20063;-83
2023/03/08 01:30:21;;;;;;;0.00;0.00;;;-0.10;99.90;;;;;;5062334;28;20043;-83
2023/03/08 01:32:47;;;;;;;0.17;0.17;;;-0.10;99.90;;;;;;5112785;28;20040;-83
2023/03/08 01:35:13;;;;;;;0.88;0.88;;;-0.10;99.90;;;;;;5095798;28;20065;-83
2023/03/08 01:37:38;;;;;;;0.00;0.00;;;-0.10;99.90;;;;;;5079795;28;20089;-83
2023/03/08 01:40:05;;;;;;;0.00;0.00;;;-0.10;99.90;;;;;;5095495;28;20130;-83
2023/03/08 01:42:31;;;;;;;0.00;0.00;;;-0.10;99.90;;;;;;5078866;28;20047;-83
2023/03/08 01:45:00;;;;;;;0.00;0.00;;;-0.10;99.90;;;;;;5113428;28;20086;-83
2023/03/08 01:47:28;;;;;;;4.47;1.05;;;-0.10;99.90;;;;;;5112041;28;20062;-83
2023/03/08 01:49:57;;;;;;;0.22;0.22;;;-0.10;99.90;;;;;;5095750;28;20124;-83
2023/03/08 01:52:34;;;;;;;0.00;0.00;;;-0.10;99.90;;;;;;5095596;28;20491;-84
2023/03/08 01:55:06;;;;;;;0.22;0.10;;;-0.20;99.90;;;;;;5095946;28;20043;-83
2023/03/08 01:57:37;;;;;;;0.00;0.00;;;-0.20;99.90;;;;;;5116276;28;20047;-83
2023/03/08 02:00:13;;;;;;;0.00;0.00;;;-0.20;99.90;;;;;;5099326;28;20048;-83
2023/03/08 02:03:07;;;;;;;0.00;0.00;;;-0.20;99.90;;;;;;5116489;28;20048;-82
2023/03/08 02:05:35;;;;;;;0.20;0.13;;;-0.20;99.90;;;;;;5089189;28;20136;-83
2023/03/08 02:08:00;;;;;;;0.70;0.30;;;-0.20;99.90;;;;;;5098784;28;20529;-83
2023/03/08 02:10:26;;;;;;;0.00;0.00;;;-0.30;99.90;;;;;;5099848;28;20048;-83
2023/03/08 02:12:52;;;;;;;0.00;0.00;;;-0.30;99.90;;;;;;5098886;28;20070;-83
2023/03/08 02:15:19;;;;;;;0.00;0.00;;;-0.30;99.90;;;;;;5066202;28;20105;-83
2023/03/08 02:17:45;;;;;;;0.00;0.00;;;-0.30;99.90;;;;;;5098611;28;20480;-83
2023/03/08 02:20:26;;;;;;;0.00;0.00;;;-0.40;99.90;;;;;;5082363;28;20054;-83
2023/03/08 02:22:52;;;;;;;0.20;0.20;;;-0.40;99.90;;;;;;5116089;28;20043;-83
2023/03/08 02:25:21;;;;;;;0.00;0.00;;;-0.40;99.90;;;;;;5081929;28;20142;-83
2023/03/08 02:27:47;;;;;;;0.32;0.32;;;-0.40;99.90;;;;;;5115713;28;20078;-83
2023/03/08 02:30:17;;;;;;;1.77;0.30;;;-0.40;99.90;;;;;;5098895;28;20086;-83
2023/03/08 02:32:43;;;;;;;0.00;0.00;;;-0.10;99.90;;;;;;5098394;28;20100;-82
2023/03/08 02:35:09;;;;;;;0.00;0.00;;;-0.30;99.90;;;;;;5065818;28;20047;-83
2023/03/08 02:37:35;;;;;;;0.05;0.05;;;-0.40;99.90;;;;;;5098534;28;20510;-83
2023/03/08 02:40:01;;;;;;;0.00;0.00;;;-0.40;99.90;;;;;;5064928;28;20138;-83
2023/03/08 02:42:26;;;;;;;0.00;0.00;;;-0.40;99.90;;;;;;5065661;28;20047;-83
2023/03/08 02:44:52;;;;;;;0.10;0.10;;;-0.40;99.90;;;;;;5065113;28;20044;-83
2023/03/08 02:47:18;;;;;;;3.53;1.00;;;-0.40;99.90;;;;;;5080686;28;20193;-83
2023/03/08 02:49:43;;;;;;;0.00;0.00;;;-0.40;99.90;;;;;;5097938;28;20043;-83
2023/03/08 02:52:09;;;;;;;0.10;0.10;;;-0.40;99.90;;;;;;5081579;28;20048;-83
2023/03/08 02:54:35;;;;;;;0.00;0.00;;;-0.40;99.90;;;;;;5098963;28;20418;-83
2023/03/08 02:57:00;;;;;;;0.00;0.00;;;-0.40;99.90;;;;;;5098140;28;20044;-83
2023/03/08 02:59:26;;;;;;;0.00;0.00;;;-0.40;99.90;;;;;;5098074;28;20097;-82
2023/03/08 03:01:52;;;;;;;0.28;0.22;;;-0.40;99.90;;;;;;5081306;28;20043;-83
2023/03/08 03:04:18;;;;;;;0.08;0.08;;;-0.40;99.90;;;;;;5098026;28;20083;-83
2023/03/08 03:06:43;;;;;;;0.00;0.00;;;-0.40;99.90;;;;;;5097437;28;20051;-83
2023/03/08 03:09:10;;;;;;;0.00;0.00;;;-0.40;99.90;;;;;;5097513;28;20047;-83
2023/03/08 03:11:35;;;;;;;0.13;0.00;;;-0.40;99.90;;;;;;5098163;28;20096;-83
2023/03/08 03:14:01;;;;;;;0.00;0.00;;;-0.40;99.90;;;;;;5114482;28;20039;-83
2023/03/08 03:16:27;;;;;;;0.00;0.00;;;0.10;99.90;;;;;;5114610;28;20388;-83
2023/03/08 03:18:55;;;;;;;0.20;0.20;;;-0.40;99.90;;;;;;5097695;28;20048;-83
2023/03/08 03:21:21;;;;;;;1.15;0.25;;;0.20;99.90;;;;;;5097558;28;20079;-83
2023/03/08 03:23:46;;;;;;;0.05;0.05;;;-0.40;99.90;;;;;;5114839;28;20078;-83
2023/03/08 03:26:15;;;;;;;0.08;0.08;;;-0.40;99.90;;;;;;5081488;28;20082;-83
2023/03/08 03:28:42;;;;;;;0.00;0.00;;;-0.40;99.90;;;;;;5114495;28;20134;-83
2023/03/08 03:31:12;;;;;;;0.25;0.10;;;-0.40;99.90;;;;;;5080932;28;20050;-83
2023/03/08 03:33:39;;;;;;;0.00;0.00;;;-0.40;99.90;;;;;;5114537;28;20096;-83
2023/03/08 03:36:05;;;;;;;0.00;0.00;;;-0.50;99.90;;;;;;5097626;28;20071;-82
2023/03/08 03:38:31;;;;;;;0.00;0.00;;;-0.50;99.90;;;;;;5097387;28;20077;-82
2023/03/08 03:41:17;;;;;;;0.22;0.00;;;-0.50;99.90;;;;;;5080454;28;20054;-82
2023/03/08 03:43:44;;;;;;;2.20;0.40;;;-0.40;99.90;;;;;;5114606;28;20096;-82
2023/03/08 03:46:15;;;;;;;0.00;0.00;;;-0.50;99.90;;;;;;5096906;28;20058;-82
2023/03/08 03:48:41;;;;;;;0.00;0.00;;;-0.50;99.90;;;;;;5110137;28;20076;-83
2023/03/08 03:51:15;;;;;;;0.10;0.10;;;-0.40;99.90;;;;;;5097074;28;20056;-83
2023/03/08 03:53:41;;;;;;;0.00;0.00;;;-0.60;99.90;;;;;;5113838;28;20046;-83
2023/03/08 03:56:15;;;;;;;0.00;0.00;;;-0.60;99.90;;;;;;5113705;28;20085;-82
2023/03/08 03:58:41;;;;;;;0.00;0.00;;;-0.60;99.90;;;;;;5096663;28;20134;-82
2023/03/08 04:01:14;;;;;;;0.00;0.00;;;-0.60;99.90;;;;;;5096912;28;20051;-82
2023/03/08 04:03:40;;;;;;;0.73;0.28;;;-0.60;99.90;;;;;;5096884;28;20042;-82
2023/03/08 04:06:17;;;;;;;0.00;0.00;;;-0.60;99.90;;;;;;5079909;28;20462;-82
2023/03/08 04:08:43;;;;;;;0.00;0.00;;;-0.60;99.90;;;;;;5114341;28;20468;-82
2023/03/08 04:11:15;;;;;;;0.00;0.00;;;-0.60;99.90;;;;;;5097012;28;20049;-82
2023/03/08 04:13:41;;;;;;;0.10;0.10;;;-0.60;99.90;;;;;;5114272;28;20043;-83
2023/03/08 04:16:16;;;;;;;0.03;0.03;;;-0.60;99.90;;;;;;5113766;28;20054;-83
2023/03/08 04:18:42;;;;;;;0.00;0.00;;;-0.60;99.90;;;;;;5096646;28;20138;-83
2023/03/08 04:21:08;;;;;;;1.02;1.02;;;-0.50;99.90;;;;;;5096601;28;20048;-82
2023/03/08 04:23:35;;;;;;;0.00;0.00;;;0.00;99.90;;;;;;5113490;28;20555;-82
2023/03/08 04:26:01;;;;;;;0.00;0.00;;;-0.60;99.90;;;;;;5096556;28;20091;-82
2023/03/08 04:28:27;;;;;;;0.00;0.00;;;-0.60;99.90;;;;;;5080589;28;20420;-82
2023/03/08 04:30:52;;;;;;;0.00;0.00;;;-0.40;99.90;;;;;;5096097;28;20043;-83
2023/03/08 04:33:19;;;;;;;0.00;0.00;;;-0.50;99.90;;;;;;5062457;28;20368;-83
2023/03/08 04:35:45;;;;;;;0.03;0.00;;;-0.50;99.90;;;;;;5078743;28;20044;-83
2023/03/08 04:38:11;;;;;;;0.08;0.08;;;-0.60;99.90;;;;;;5078847;28;20054;-83
2023/03/08 04:41:00;;;;;;;2.40;0.38;;;-0.60;99.90;;;;;;5096200;28;20399;-83
2023/03/08 04:43:24;;;;;;;0.00;0.00;;;0.30;99.90;;;;;;5098685;28;20134;-82
2023/03/08 04:45:49;;;;;;;0.20;0.10;;;-0.60;99.90;;;;;;5113846;28;20364;-83
2023/03/08 04:48:15;;;;;;;0.00;0.00;;;-0.60;99.90;;;;;;5112240;28;20043;-82
2023/03/08 04:50:41;;;;;;;0.35;0.10;;;-0.60;99.90;;;;;;5079668;28;20097;-83
2023/03/08 04:53:07;;;;;;;0.13;0.00;;;-0.60;99.90;;;;;;5096623;28;20463;-83
2023/03/08 04:55:35;;;;;;;0.00;0.00;;;-0.60;99.90;;;;;;5079172;28;20052;-83
2023/03/08 04:58:01;;;;;;;0.10;0.10;;;-0.70;99.90;;;;;;5096039;28;20050;-83
2023/03/08 05:00:27;;;;;;;0.00;0.00;;;-0.60;99.90;;;;;;5062630;28;20047;-83
2023/03/08 05:02:52;;;;;;;0.10;0.10;;;-0.60;99.90;;;;;;5079259;28;20051;-83
2023/03/08 05:05:18;;;;;;;0.00;0.00;;;-0.60;99.90;;;;;;5079900;28;20047;-82
2023/03/08 05:07:44;;;;;;;0.00;0.00;;;0.10;99.90;;;;;;5112751;28;20398;-83
2023/03/08 05:10:10;;;;;;;0.00;0.00;;;-0.70;99.90;;;;;;5096187;28;20051;-83
2023/03/08 05:12:35;;;;;;;0.10;0.10;;;-0.70;99.90;;;;;;5078812;28;20369;-82
2023/03/08 05:15:01;;;;;;;0.15;0.08;;;-0.70;99.90;;;;;;5112508;28;20396;-82
2023/03/08 05:17:27;;;;;;;0.00;0.00;;;-0.70;99.90;;;;;;5095664;28;20182;-82
2023/03/08 05:19:53;;;;;;;0.00;0.00;;;-0.40;99.90;;;;;;5078749;28;20552;-82
2023/03/08 05:22:18;;;;;;;0.00;0.00;;;-0.70;99.90;;;;;;5096189;28;20555;-83
2023/03/08 05:24:45;;;;;;;0.00;0.00;;;-0.80;99.90;;;;;;5095599;28;20047;-83
2023/03/08 05:27:10;;;;;;;0.00;0.00;;;-0.80;99.90;;;;;;5079135;28;20130;-83
2023/03/08 05:29:36;;;;;;;0.00;0.00;;;-0.90;99.90;;;;;;5095583;28;20180;-82
2023/03/08 05:32:02;;;;;;;0.00;0.00;;;-0.90;99.90;;;;;;5098594;28;20040;-82
2023/03/08 05:34:29;;;;;;;0.00;0.00;;;-0.90;99.90;;;;;;5082659;28;20055;-82
2023/03/08 05:36:54;;;;;;;0.20;0.20;;;-0.90;99.90;;;;;;5099430;28;20047;-82
2023/03/08 05:39:20;;;;;;;0.00;0.00;;;-0.90;99.90;;;;;;5082408;28;20050;-83
2023/03/08 05:41:46;;;;;;;0.00;0.00;;;-0.90;99.90;;;;;;5116091;28;20036;-83
2023/03/08 05:44:12;;;;;;;0.00;0.00;;;-1.00;99.90;;;;;;5082609;28;20087;-82
2023/03/08 05:46:38;;;;;;;0.00;0.00;;;-1.00;99.90;;;;;;5099303;28;20054;-83
2023/03/08 05:49:07;;;;;;;0.00;0.00;;;-1.00;99.90;;;;;;5098615;28;20063;-83
2023/03/08 05:51:33;;;;;;;0.00;0.00;;;-1.00;99.90;;;;;;5066024;28;20062;-83
2023/03/08 05:53:58;;;;;;;0.47;0.15;;;-1.00;99.90;;;;;;5098801;28;20423;-82
2023/03/08 05:56:24;;;;;;;0.00;0.00;;;-0.90;99.90;;;;;;5065659;28;20039;-82
2023/03/08 05:58:51;;;;;;;0.00;0.00;;;-0.90;99.90;;;;;;5099003;28;20504;-82
2023/03/08 06:01:23;;;;;;;0.00;0.00;;;-0.90;99.90;;;;;;5098979;28;20120;-83
2023/03/08 06:03:50;;;;;;;0.00;0.00;;;-0.90;99.90;;;;;;5098966;28;20043;-83
2023/03/08 06:06:17;;;;;;;0.00;0.00;;;-0.90;99.90;;;;;;5115985;28;20044;-83
2023/03/08 06:08:44;;;;;;;1.00;0.70;;;-0.80;99.90;;;;;;5115876;28;20105;-82
2023/03/08 06:11:10;;;;;;;0.00;0.00;;;-0.80;99.90;;;;;;5116091;28;20093;-83
2023/03/08 06:13:36;;;;;;;0.00;0.00;;;-0.40;99.90;;;;;;5115398;28;20511;-82
2023/03/08 06:16:04;;;;;;;0.00;0.00;;;-0.80;99.90;;;;;;5081816;28;20051;-82
2023/03/08 06:18:30;;;;;;;0.30;0.22;;;-0.80;99.90;;;;;;5098871;28;20487;-82
2023/03/08 06:21:03;;;;;;;0.03;0.03;;;-0.80;99.90;;;;;;5115656;28;20035;-82
2023/03/08 06:23:30;;;;;;;0.00;0.00;;;-0.80;99.90;;;;;;5116338;28;20052;-82
2023/03/08 06:25:56;;;;;;;0.15;0.15;;;-0.80;99.90;;;;;;5115449;28;20043;-82
2023/03/08 06:28:24;;;;;;;0.10;0.10;;;-0.90;99.90;;;;;;5098430;28;20063;-82
2023/03/08 06:30:50;;;;;;;0.08;0.08;;;-0.80;99.90;;;;;;5115797;28;20040;-82
2023/03/08 06:33:17;;;;;;;0.00;0.00;;;-0.80;99.90;;;;;;5115666;28;20478;-81
2023/03/08 06:35:43;;;;;;;0.35;0.35;;;-0.80;99.90;;;;;;5099109;28;20091;-82
2023/03/08 06:38:09;;;;;;;0.20;0.20;;;-0.80;99.90;;;;;;5115030;28;20127;-82
2023/03/08 06:40:35;;;;;;;0.00;0.00;;;-0.70;99.90;;;;;;5098080;28;20554;-82
2023/03/08 06:43:01;;;;;;;0.10;0.10;;;-0.70;99.90;;;;;;5098501;28;20126;-82
2023/03/08 06:45:26;;;;;;;0.20;0.10;;;-0.70;99.90;;;;;;5081255;28;20044;-82
2023/03/08 06:47:52;;;;;;;0.10;0.10;;;-0.20;99.90;;;;;;5097888;28;20085;-83
2023/03/08 06:50:18;;;;;;;0.03;0.00;;;-0.70;99.90;;;;;;5064572;28;20050;-83
2023/03/08 06:52:44;;;;;;;0.05;0.05;;;-0.70;99.90;;;;;;5098534;28;20044;-83
2023/03/08 06:55:10;;;;;;;0.17;0.17;;;-0.70;99.90;;;;;;5098211;28;20363;-82
2023/03/08 06:57:36;;;;;;;0.00;0.00;;;-0.70;99.90;;;;;;5098046;28;20468;-82
2023/03/08 07:00:03;;;;;;;0.00;0.00;;;-0.60;99.90;;;;;;5098182;28;20100;-82
2023/03/08 07:02:28;;;;;;;0.00;0.00;;;-0.60;99.90;;;;;;5098222;28;20134;-82
2023/03/08 07:04:54;;;;;;;0.38;0.38;;;-0.60;99.90;;;;;;5115064;28;20424;-83
2023/03/08 07:07:20;;;;;;;0.28;0.20;;;-0.60;99.90;;;;;;5114494;28;20046;-83
2023/03/08 07:09:45;;;;;;;0.00;0.00;;;-0.50;99.90;;;;;;5115575;28;20085;-82
2023/03/08 07:12:11;;;;;;;0.00;0.00;;;-0.60;99.90;;;;;;5114321;28;20043;-82
2023/03/08 07:14:37;;;;;;;3.03;0.30;;;-0.60;99.90;;;;;;5114654;28;20043;-81
2023/03/08 07:17:02;;;;;;;0.00;0.00;;;-0.60;99.90;;;;;;5115128;28;20050;-81
2023/03/08 07:19:29;;;;;;;0.15;0.15;;;-0.60;99.90;;;;;;5097200;28;20116;-81
2023/03/08 07:21:55;;;;;;;0.40;0.40;;;-0.20;99.90;;;;;;5114673;28;20047;-80
2023/03/08 07:24:21;;;;;;;0.00;0.00;;;-0.70;99.90;;;;;;5114507;28;20063;-79
2023/03/08 07:26:46;;;;;;;0.08;0.08;;;-0.70;99.90;;;;;;5114299;28;20042;-82
2023/03/08 07:29:12;;;;;;;0.52;0.52;;;-0.10;99.90;;;;;;5097022;28;20130;-82
2023/03/08 07:31:38;;;;;;;0.00;0.00;;;-0.60;99.90;;;;;;5097442;28;20046;-84
2023/03/08 07:34:04;;;;;;;0.05;0.03;;;-0.60;99.90;;;;;;5097208;28;20096;-86
2023/03/08 07:36:31;;;;;;;0.40;0.40;;;-0.60;99.90;;;;;;5114732;28;20039;-82
2023/03/08 07:38:57;;;;;;;0.10;0.08;;;-0.60;99.90;;;;;;5114419;28;20511;-82
2023/03/08 07:41:22;;;;;;;0.05;0.05;;;-0.60;99.90;;;;;;5063360;28;20083;-81
2023/03/08 07:43:48;;;;;;;0.00;0.00;;;-0.50;99.90;;;;;;5080433;28;20047;-82
2023/03/08 07:46:14;;;;;;;2.50;0.35;;;-0.50;99.90;;;;;;5097540;28;20035;-81
2023/03/08 07:48:39;;;;;;;0.00;0.00;;;-0.50;99.90;;;;;;5096894;28;20063;-82
2023/03/08 07:51:08;;;;;;;0.00;0.00;;;-0.40;99.90;;;;;;5080488;28;20116;-82
2023/03/08 07:53:35;;;;;;;0.13;0.13;;;-0.30;99.90;;;;;;5079818;28;20048;-81
2023/03/08 07:56:02;;;;;;;0.20;0.20;;;-0.30;99.90;;;;;;5097023;28;20520;-82
2023/03/08 07:58:28;;;;;;;0.47;0.43;;;-0.30;99.90;;;;;;5096958;28;20448;-81
2023/03/08 08:00:54;;;;;;;0.17;0.17;;;-0.10;99.90;;;;;;5113704;28;20046;-81
2023/03/08 08:03:20;;;;;;;0.08;0.00;;;-0.10;99.90;;;;;;5096550;28;20052;-81
2023/03/08 08:05:46;;;;;;;0.40;0.40;;;-0.10;99.90;;;;;;5079504;28;20056;-82
2023/03/08 08:08:12;;;;;;;0.60;0.55;;;-0.20;99.90;;;;;;5080505;28;20048;-82
2023/03/08 08:10:42;;;;;;;1.55;0.55;;;0.00;99.90;;;;;;5079493;28;20047;-86
2023/03/08 08:13:08;;;;;;;0.00;0.00;;;0.00;99.90;;;;;;5096167;28;20035;-81
2023/03/08 08:15:34;;;;;;;0.45;0.22;;;0.00;99.90;;;;;;5113423;28;20039;-81
2023/03/08 08:18:00;;;;;;;0.10;0.10;;;0.10;99.90;;;;;;5113533;28;20081;-83
2023/03/08 08:20:26;;;;;;;0.35;0.20;;;0.20;99.90;;;;;;5095805;28;20100;-82
2023/03/08 08:22:52;;;;;;;8.48;1.23;;;0.10;99.90;;;;;;5095897;28;20039;-82
2023/03/08 08:25:19;;;;;;;0.80;0.73;;;0.10;99.90;;;;;;5080332;28;20051;-82
2023/03/08 08:27:45;;;;;;;0.60;0.30;;;0.10;99.90;;;;;;5095953;28;20044;-82
2023/03/08 08:30:14;;;;;;;0.22;0.22;;;0.10;99.90;;;;;;5113461;28;20050;-82
2023/03/08 08:32:40;;;;;;;1.95;0.63;;;0.10;99.90;;;;;;5096793;28;20055;-82
2023/03/08 08:35:06;;;;;;;0.05;0.05;;;0.20;99.90;;;;;;5113902;28;20452;-82
2023/03/08 08:37:32;;;;;;;0.30;0.10;;;0.20;99.90;;;;;;5079125;28;20047;-82
2023/03/08 08:39:59;;;;;;;0.40;0.08;;;0.20;99.90;;;;;;5096094;28;20606;-82
2023/03/08 08:42:25;;;;;;;0.57;0.28;;;0.30;99.90;;;;;;5096021;28;20051;-82
2023/03/08 08:44:54;;;;;;;0.00;0.00;;;0.20;99.90;;;;;;5113174;28;20123;-82
2023/03/08 08:47:20;;;;;;;0.10;0.03;;;0.30;99.90;;;;;;5095977;28;20040;-82
2023/03/08 08:49:46;;;;;;;0.10;0.10;;;0.30;99.90;;;;;;5062277;28;20107;-82
2023/03/08 08:52:11;;;;;;;0.65;0.63;;;0.30;99.90;;;;;;5112825;28;20217;-82
2023/03/08 08:54:38;;;;;;;1.02;0.55;;;0.30;99.90;;;;;;5078608;28;20376;-83
2023/03/08 08:57:05;;;;;;;0.80;0.80;;;0.40;99.90;;;;;;5096235;28;20134;-83
2023/03/08 08:59:31;;;;;;;2.28;0.45;;;0.40;99.90;;;;;;5079431;28;20047;-83
2023/03/08 09:01:57;;;;;;;0.55;0.47;;;0.40;99.90;;;;;;5113231;28;20495;-83
2023/03/08 09:04:22;;;;;;;0.30;0.30;;;0.50;99.90;;;;;;5096344;28;20048;-83
2023/03/08 09:06:48;;;;;;;0.20;0.20;;;0.40;99.90;;;;;;5100083;28;20066;-83
2023/03/08 09:09:15;;;;;;;0.47;0.40;;;0.50;99.90;;;;;;5100145;28;20122;-83
2023/03/08 09:11:41;;;;;;;0.22;0.17;;;1.00;99.90;;;;;;5100020;28;20048;-83
2023/03/08 09:14:06;;;;;;;2.33;0.47;;;0.60;99.90;;;;;;5082686;28;20130;-83
2023/03/08 09:16:34;;;;;;;0.98;0.80;;;0.70;99.90;;;;;;5116799;28;20490;-83
2023/03/08 09:19:02;;;;;;;0.20;0.20;;;0.80;99.90;;;;;;5100024;28;20440;-83
2023/03/08 09:21:29;;;;;;;1.58;0.85;;;0.70;99.90;;;;;;5116762;28;20215;-83
2023/03/08 09:23:59;;;;;;;0.52;0.52;;;0.80;99.90;;;;;;5099711;28;20051;-83
2023/03/08 09:26:25;;;;;;;7.82;1.63;;;0.80;99.90;;;;;;5116774;28;20043;-83
2023/03/08 09:28:50;;;;;;;1.08;0.98;;;0.80;99.90;;;;;;5117455;28;20043;-83
2023/03/08 09:31:17;;;;;;;0.13;0.13;;;0.80;99.90;;;;;;5100443;28;20116;-82
2023/03/08 09:33:45;;;;;;;0.95;0.08;;;0.80;99.90;;;;;;5117121;28;20054;-83
2023/03/08 09:36:11;;;;;;;0.35;0.35;;;0.70;99.90;;;;;;5099204;28;20047;-84
2023/03/08 09:38:38;;;;;;;0.30;0.30;;;0.80;99.90;;;;;;5099907;28;20054;-84
2023/03/08 09:41:24;;;;;;;0.10;0.10;;;0.80;99.90;;;;;;5116733;28;20364;-83
2023/03/08 09:44:25;;;;;;;0.25;0.25;;;0.70;99.90;;;;;;5099793;28;20428;-83
2023/03/08 09:47:09;;;;;;;2.05;0.85;;;0.80;99.90;;;;;;5100239;28;20047;-86
2023/03/08 09:49:37;;;;;;;0.05;0.05;;;0.90;99.90;;;;;;5118469;28;20054;-85
2023/03/08 09:52:06;;;;;;;0.40;0.40;;;1.00;99.90;;;;;;5102488;28;20046;-83
2023/03/08 09:54:37;;;;;;;1.25;1.15;;;1.00;99.90;;;;;;5116478;28;20078;-83
2023/03/08 09:57:07;;;;;;;0.00;0.00;;;1.10;99.90;;;;;;5099926;28;20048;-83
2023/03/08 09:59:56;;;;;;;0.32;0.32;;;1.10;99.90;;;;;;5117140;28;20048;-83
2023/03/08 10:02:34;;;;;;;1.30;1.20;;;1.20;99.90;;;;;;5098968;28;20471;-83
2023/03/08 10:05:05;;;;;;;0.25;0.20;;;1.10;99.90;;;;;;5117088;28;20130;-83
2023/03/08 10:07:46;;;;;;;0.35;0.35;;;1.30;99.90;;;;;;5099913;28;20054;-83
2023/03/08 10:10:40;;;;;;;0.20;0.20;;;1.30;99.90;;;;;;5116118;28;20043;-84
2023/03/08 10:13:47;;;;;;;3.53;0.68;;;1.30;99.90;;;;;;5098892;28;20177;-84
2023/03/08 10:16:18;;;;;;;0.73;0.73;;;1.40;99.90;;;;;;5033591;28;20141;-84
2023/03/08 10:19:18;;;;;;;0.50;0.47;;;1.50;99.90;;;;;;5034413;28;20091;-84
2023/03/08 10:21:44;;;;;;;0.63;0.63;;;1.70;99.90;;;;;;5107942;27;20094;-84
2023/03/08 10:24:25;;;;;;;0.55;0.55;;;1.90;99.90;;;;;;5115841;28;20044;-84
2023/03/08 10:26:53;;;;;;;0.52;0.40;;;2.00;99.90;;;;;;5099082;28;20089;-84
2023/03/08 10:29:20;;;;;;;0.00;0.00;;;2.20;99.90;;;;;;5115655;28;20076;-84
2023/03/08 10:31:46;;;;;;;0.43;0.43;;;2.20;99.50;;;;;;5099405;28;20047;-83
2023/03/08 10:34:19;;;;;;;5.05;0.65;;;2.30;99.40;;;;;;5098381;28;20075;-83
2023/03/08 10:36:47;;;;;;;0.40;0.40;;;2.20;98.60;;;;;;5098505;28;20048;-83
2023/03/08 10:39:14;;;;;;;0.57;0.57;;;2.20;98.50;;;;;;5116408;28;20086;-83
2023/03/08 10:41:56;;;;;;;1.02;0.60;;;2.30;98.70;;;;;;5098495;28;20052;-83
2023/03/08 10:44:39;;;;;;;2.20;0.30;;;2.50;99.10;;;;;;5099258;28;20047;-83
2023/03/08 10:47:20;;;;;;;0.30;0.30;;;2.70;99.50;;;;;;5098546;28;20388;-84
2023/03/08 10:49:46;;;;;;;0.20;0.20;;;2.70;98.10;;;;;;5115024;28;20083;-84
2023/03/08 10:52:27;;;;;;;0.30;0.28;;;2.80;97.90;;;;;;5081453;28;20146;-84
2023/03/08 10:55:26;;;;;;;1.40;0.25;;;2.80;97.30;;;;;;5115340;28;20364;-84
2023/03/08 10:57:54;;;;;;;0.00;0.00;;;2.80;97.10;;;;;;5098205;28;20058;-84
2023/03/08 11:00:23;;;;;;;0.65;0.45;;;3.00;96.50;;;;;;5098786;28;20055;-83
2023/03/08 11:03:00;;;;;;;0.55;0.55;;;3.00;96.70;;;;;;5115275;28;20047;-83
2023/03/08 11:05:26;;;;;;;3.72;0.45;;;2.90;94.90;;;;;;5098132;28;20052;-84
2023/03/08 11:07:54;;;;;;;1.55;0.57;;;2.80;95.30;;;;;;5080554;28;20055;-84
2023/03/08 11:10:23;;;;;;;0.00;0.00;;;2.90;95.70;;;;;;5097901;28;20479;-84
2023/03/08 11:13:19;;;;;;;0.45;0.45;;;3.10;95.80;;;;;;5097904;28;20058;-83
2023/03/08 11:15:53;;;;;;;0.50;0.32;;;3.10;95.00;;;;;;5114828;28;20134;-83
2023/03/08 11:18:34;;;;;;;0.52;0.52;;;3.20;94.70;;;;;;5115114;28;20047;-83
2023/03/08 11:21:48;;;;;;;0.85;0.52;;;3.30;94.60;;;;;;5098587;28;20144;-84
2023/03/08 11:24:51;;;;;;;0.30;0.30;;;3.20;93.90;;;;;;5058894;28;20116;-84
2023/03/08 11:27:35;;;;;;;2.53;1.02;;;3.10;92.00;;;;;;5114436;28;20043;-83
2023/03/08 11:30:03;;;;;;;0.45;0.45;;;3.20;93.90;;;;;;5096657;28;20048;-83
2023/03/08 11:32:49;;;;;;;0.52;0.50;;;3.20;92.60;;;;;;5097402;28;20134;-83
2023/03/08 11:35:30;;;;;;;1.65;0.45;;;3.30;93.20;;;;;;5114081;28;20047;-83
2023/03/08 11:38:11;;;;;;;0.47;0.47;;;3.40;91.70;;;;;;5114388;28;20528;-83
2023/03/08 11:40:56;;;;;;;1.58;0.98;;;3.30;91.30;;;;;;5114630;28;20051;-83
2023/03/08 11:43:43;;;;;;;4.75;0.55;;;3.40;92.20;;;;;;5097529;28;20056;-83
2023/03/08 11:46:18;;;;;;;0.98;0.40;;;3.40;91.90;;;;;;5097360;28;20082;-84
2023/03/08 11:49:01;;;;;;;0.73;0.70;;;3.50;91.60;;;;;;5096619;28;20445;-83
2023/03/08 11:51:46;;;;;;;0.03;0.00;;;3.50;91.40;;;;;;5150787;27;1267537;-83
2023/03/08 11:54:43;;;;;;;0.00;0.00;;;3.60;91.80;;;;;;5155893;27;20137;-83
2023/03/08 11:57:15;;;;;;;0.68;0.40;;;3.80;91.60;;;;;;5155380;27;20054;-83
2023/03/08 11:59:47;;;;;;;0.65;0.65;;;4.00;91.00;;;;;;5155147;27;20059;-83
2023/03/08 12:02:15;;;;;;;5.78;0.95;;;3.90;90.60;;;;;;5137877;27;20046;-84
2023/03/08 12:05:06;;;;;;;1.95;0.98;;;4.00;90.30;;;;;;5155013;27;20042;-83
2023/03/08 12:07:46;;;;;;;1.73;1.52;;;4.00;89.40;;;;;;5155283;27;20046;-82
2023/03/08 12:10:51;;;;;;;0.45;0.45;;;4.00;88.90;;;;;;5137827;27;20074;-83
2023/03/08 12:13:25;;;;;;;3.10;2.03;;;3.90;86.80;;;;;;5072514;28;20041;-84
2023/03/08 12:16:10;;;;;;;0.65;0.65;;;3.90;86.50;;;;;;5130026;27;20482;-83
2023/03/08 12:18:56;;;;;;;3.97;1.50;;;3.90;89.10;;;;;;5154553;27;20183;-83
2023/03/08 12:21:43;;;;;;;1.23;1.20;;;3.90;88.70;;;;;;5154811;27;20042;-84
2023/03/08 12:24:30;;;;;;;1.88;1.35;;;3.90;86.90;;;;;;5154850;27;20082;-83
2023/03/08 12:27:08;;;;;;;0.38;0.38;;;3.80;84.70;;;;;;5154759;27;20080;-84
2023/03/08 12:29:44;;;;;;;1.67;1.58;;;3.90;88.10;;;;;;5154593;27;20043;-83
2023/03/08 12:32:12;;;;;;;3.60;0.80;;;3.90;86.10;;;;;;5154173;27;20043;-83
2023/03/08 12:34:41;;;;;;;0.47;0.47;;;3.90;85.80;;;;;;5136971;27;20081;-84
2023/03/08 12:37:22;;;;;;;0.98;0.40;;;3.90;86.70;;;;;;5154615;27;20046;-84
2023/03/08 12:40:22;;;;;;;0.20;0.20;;;3.90;87.00;;;;;;5172928;27;20371;-83
2023/03/08 12:42:48;;;;;;;0.75;0.75;;;3.90;86.10;;;;;;5143242;27;20065;-83
2023/03/08 12:45:22;;;;;;;2.97;0.45;;;4.00;85.20;;;;;;5172654;27;20133;-83
2023/03/08 12:48:06;;;;;;;0.10;0.10;;;4.00;99.90;;;;;;5136404;27;20508;-84
2023/03/08 12:50:39;;;;;;;1.00;0.60;;;3.90;99.90;;;;;;5153878;27;20050;-84
2023/03/08 12:53:22;;;;;;;0.70;0.70;;;3.80;99.90;;;;;;5137525;27;20048;-84
2023/03/08 12:56:18;;;;;;;3.47;0.70;;;4.00;99.90;;;;;;5154048;27;20053;-84
2023/03/08 12:58:59;;;;;;;2.33;0.70;;;4.00;99.90;;;;;;5136007;27;20042;-83
2023/03/08 13:01:28;;;;;;;1.38;0.40;;;4.10;99.90;;;;;;5149328;27;20061;-83
2023/03/08 13:03:54;;;;;;;2.17;0.68;;;4.10;99.90;;;;;;5140151;27;20039;-83
2023/03/08 13:06:41;;;;;;;0.00;0.00;;;4.10;99.90;;;;;;5140096;27;20047;-83